sensor_id;sensor_type;location;lat;lon;timestamp;temperature;humidity
19058;DHT22;9662;53.612;9.914;2022-07-06T01:58:40;17.50;99.90
19058;DHT22;9662;53.612;9.914;2022-07-06T12:50:16;20.80;99.90
19058;DHT22;9662;53.612;9.914;2022-07-06T12:52:42;20.90;99.90
19058;DHT22;9662;53.612;9.914;2022-07-06T12:55:09;20.80;99.90
19058;DHT22;9662;53.612;9.914;2022-07-06T12:57:44;20.70;99.90
19058;DHT22;9662;53.612;9.914;2022-07-06T13:00:14;20.60;99.90
19058;DHT22;9662;53.612;9.914;2022-07-06T13:02:44;20.40;99.90
19058;DHT22;9662;53.612;9.914;2022-07-06T13:05:13;20.40;99.90
19058;DHT22;9662;53.612;9.914;2022-07-06T13:07:44;20.40;99.90
19058;DHT22;9662;53.612;9.914;2022-07-06T13:10:13;20.50;99.90
19058;DHT22;9662;53.612;9.914;2022-07-06T13:12:40;20.60;99.90
19058;DHT22;9662;53.612;9.914;2022-07-06T13:15:08;20.50;99.90
19058;DHT22;9662;53.612;9.914;2022-07-06T13:17:37;20.30;99.90
19058;DHT22;9662;53.612;9.914;2022-07-06T13:20:05;20.10;99.90
19058;DHT22;9662;53.612;9.914;2022-07-06T13:22:32;20.20;99.90
19058;DHT22;9662;53.612;9.914;2022-07-06T13:24:59;20.30;99.90
19058;DHT22;9662;53.612;9.914;2022-07-06T13:27:26;20.50;99.90
19058;DHT22;9662;53.612;9.914;2022-07-06T13:29:52;20.60;99.90
19058;DHT22;9662;53.612;9.914;2022-07-06T13:32:20;20.70;99.90
19058;DHT22;9662;53.612;9.914;2022-07-06T13:34:48;20.70;99.90
19058;DHT22;9662;53.612;9.914;2022-07-06T13:37:15;20.50;99.90
19058;DHT22;9662;53.612;9.914;2022-07-06T13:39:42;20.70;99.90
19058;DHT22;9662;53.612;9.914;2022-07-06T13:42:08;21.10;99.90
19058;DHT22;9662;53.612;9.914;2022-07-06T13:44:35;21.50;99.90
19058;DHT22;9662;53.612;9.914;2022-07-06T13:47:03;21.70;99.90
19058;DHT22;9662;53.612;9.914;2022-07-06T13:49:30;21.60;99.90
19058;DHT22;9662;53.612;9.914;2022-07-06T13:51:58;21.00;99.90
19058;DHT22;9662;53.612;9.914;2022-07-06T13:54:29;20.80;99.90
19058;DHT22;9662;53.612;9.914;2022-07-06T13:56:56;20.60;99.90
19058;DHT22;9662;53.612;9.914;2022-07-06T13:59:22;20.50;99.90
19058;DHT22;9662;53.612;9.914;2022-07-06T14:01:49;20.70;99.90
19058;DHT22;9662;53.612;9.914;2022-07-06T14:04:16;20.70;99.90
19058;DHT22;9662;53.612;9.914;2022-07-06T14:06:43;20.80;99.90
19058;DHT22;9662;53.612;9.914;2022-07-06T14:09:11;20.90;99.90
19058;DHT22;9662;53.612;9.914;2022-07-06T14:11:38;20.70;99.90
19058;DHT22;9662;53.612;9.914;2022-07-06T14:14:04;20.40;99.90
19058;DHT22;9662;53.612;9.914;2022-07-06T14:16:32;20.50;99.90
19058;DHT22;9662;53.612;9.914;2022-07-06T14:19:00;20.80;99.90
19058;DHT22;9662;53.612;9.914;2022-07-06T14:21:27;20.80;99.90
19058;DHT22;9662;53.612;9.914;2022-07-06T14:23:55;20.80;99.90
19058;DHT22;9662;53.612;9.914;2022-07-06T14:26:23;21.00;99.90
19058;DHT22;9662;53.612;9.914;2022-07-06T14:28:49;21.10;99.90
19058;DHT22;9662;53.612;9.914;2022-07-06T14:31:17;21.10;99.90
19058;DHT22;9662;53.612;9.914;2022-07-06T14:33:43;20.90;99.90
19058;DHT22;9662;53.612;9.914;2022-07-06T14:36:10;20.80;99.90
19058;DHT22;9662;53.612;9.914;2022-07-06T14:38:37;20.90;99.90
19058;DHT22;9662;53.612;9.914;2022-07-06T14:41:04;20.80;99.90
19058;DHT22;9662;53.612;9.914;2022-07-06T14:43:32;20.70;99.90
19058;DHT22;9662;53.612;9.914;2022-07-06T14:45:59;20.80;99.90
19058;DHT22;9662;53.612;9.914;2022-07-06T14:48:25;21.10;99.90
19058;DHT22;9662;53.612;9.914;2022-07-06T14:50:52;21.40;99.90
19058;DHT22;9662;53.612;9.914;2022-07-06T14:53:19;21.40;99.90
19058;DHT22;9662;53.612;9.914;2022-07-06T14:55:46;21.50;99.90
19058;DHT22;9662;53.612;9.914;2022-07-06T14:58:13;21.50;99.90
19058;DHT22;9662;53.612;9.914;2022-07-06T15:00:44;21.50;99.90
19058;DHT22;9662;53.612;9.914;2022-07-06T15:03:11;21.50;99.90
19058;DHT22;9662;53.612;9.914;2022-07-06T15:05:38;21.20;99.90
19058;DHT22;9662;53.612;9.914;2022-07-06T15:08:05;21.60;99.90
19058;DHT22;9662;53.612;9.914;2022-07-06T15:10:33;21.60;99.90
19058;DHT22;9662;53.612;9.914;2022-07-06T15:12:59;21.40;99.90
19058;DHT22;9662;53.612;9.914;2022-07-06T15:15:26;21.50;99.90
19058;DHT22;9662;53.612;9.914;2022-07-06T15:17:54;21.20;99.90
19058;DHT22;9662;53.612;9.914;2022-07-06T15:20:21;21.10;99.90
19058;DHT22;9662;53.612;9.914;2022-07-06T15:22:48;21.20;99.90
19058;DHT22;9662;53.612;9.914;2022-07-06T15:25:15;21.10;99.90
19058;DHT22;9662;53.612;9.914;2022-07-06T15:27:42;21.20;99.90
19058;DHT22;9662;53.612;9.914;2022-07-06T15:30:09;21.10;99.90
19058;DHT22;9662;53.612;9.914;2022-07-06T15:32:36;20.60;99.90
19058;DHT22;9662;53.612;9.914;2022-07-06T15:35:05;21.00;99.90
19058;DHT22;9662;53.612;9.914;2022-07-06T15:37:32;21.00;99.90
19058;DHT22;9662;53.612;9.914;2022-07-06T15:39:59;21.20;99.90
19058;DHT22;9662;53.612;9.914;2022-07-06T15:42:26;21.50;99.90
19058;DHT22;9662;53.612;9.914;2022-07-06T15:44:53;21.50;99.90
19058;DHT22;9662;53.612;9.914;2022-07-06T15:47:20;21.50;99.90
19058;DHT22;9662;53.612;9.914;2022-07-06T15:49:48;21.50;99.90
19058;DHT22;9662;53.612;9.914;2022-07-06T15:52:17;21.50;99.90
19058;DHT22;9662;53.612;9.914;2022-07-06T15:54:43;21.80;99.90
19058;DHT22;9662;53.612;9.914;2022-07-06T15:57:10;21.90;99.90
19058;DHT22;9662;53.612;9.914;2022-07-06T15:59:37;22.00;99.90
19058;DHT22;9662;53.612;9.914;2022-07-06T16:02:04;21.60;99.90
19058;DHT22;9662;53.612;9.914;2022-07-06T16:04:31;21.60;99.90
19058;DHT22;9662;53.612;9.914;2022-07-06T16:06:58;21.50;99.90
19058;DHT22;9662;53.612;9.914;2022-07-06T16:09:26;21.40;99.90
19058;DHT22;9662;53.612;9.914;2022-07-06T16:11:53;21.30;99.90
19058;DHT22;9662;53.612;9.914;2022-07-06T16:14:19;21.60;99.90
19058;DHT22;9662;53.612;9.914;2022-07-06T16:16:46;21.30;99.90
19058;DHT22;9662;53.612;9.914;2022-07-06T16:19:13;21.60;99.90
19058;DHT22;9662;53.612;9.914;2022-07-06T16:21:40;21.90;99.90
19058;DHT22;9662;53.612;9.914;2022-07-06T16:24:07;21.90;99.90
19058;DHT22;9662;53.612;9.914;2022-07-06T16:26:35;21.70;99.90
19058;DHT22;9662;53.612;9.914;2022-07-06T16:29:02;21.60;99.90
19058;DHT22;9662;53.612;9.914;2022-07-06T16:31:29;21.50;99.90
19058;DHT22;9662;53.612;9.914;2022-07-06T16:33:56;21.20;99.90
19058;DHT22;9662;53.612;9.914;2022-07-06T16:36:23;21.50;99.90
19058;DHT22;9662;53.612;9.914;2022-07-06T16:38:50;21.10;99.90
19058;DHT22;9662;53.612;9.914;2022-07-06T16:41:16;21.50;99.90
19058;DHT22;9662;53.612;9.914;2022-07-06T16:43:45;21.60;99.90
19058;DHT22;9662;53.612;9.914;2022-07-06T16:46:12;21.40;99.90
19058;DHT22;9662;53.612;9.914;2022-07-06T16:48:39;21.40;99.90
19058;DHT22;9662;53.612;9.914;2022-07-06T16:51:06;21.40;99.90
19058;DHT22;9662;53.612;9.914;2022-07-06T16:53:33;21.40;99.90
19058;DHT22;9662;53.612;9.914;2022-07-06T16:56:00;21.20;99.90
19058;DHT22;9662;53.612;9.914;2022-07-06T16:58:28;21.20;99.90
19058;DHT22;9662;53.612;9.914;2022-07-06T17:00:56;21.30;99.90
19058;DHT22;9662;53.612;9.914;2022-07-06T17:03:22;21.30;99.90
19058;DHT22;9662;53.612;9.914;2022-07-06T17:05:49;20.80;99.90
19058;DHT22;9662;53.612;9.914;2022-07-06T17:08:16;21.00;99.90
19058;DHT22;9662;53.612;9.914;2022-07-06T17:10:43;21.00;99.90
19058;DHT22;9662;53.612;9.914;2022-07-06T17:13:09;21.10;99.90
19058;DHT22;9662;53.612;9.914;2022-07-06T17:15:36;21.20;99.90
19058;DHT22;9662;53.612;9.914;2022-07-06T17:18:05;21.50;99.90
19058;DHT22;9662;53.612;9.914;2022-07-06T17:20:32;21.70;99.90
19058;DHT22;9662;53.612;9.914;2022-07-06T17:22:58;21.80;99.90
19058;DHT22;9662;53.612;9.914;2022-07-06T17:25:25;21.50;99.90
19058;DHT22;9662;53.612;9.914;2022-07-06T17:27:52;21.20;99.90
19058;DHT22;9662;53.612;9.914;2022-07-06T17:30:19;21.70;99.90
19058;DHT22;9662;53.612;9.914;2022-07-06T17:32:46;21.80;99.90
19058;DHT22;9662;53.612;9.914;2022-07-06T17:35:14;22.00;99.90
19058;DHT22;9662;53.612;9.914;2022-07-06T17:37:41;21.60;99.90
19058;DHT22;9662;53.612;9.914;2022-07-06T17:40:09;21.60;99.90
19058;DHT22;9662;53.612;9.914;2022-07-06T17:42:36;21.40;99.90
19058;DHT22;9662;53.612;9.914;2022-07-06T17:45:03;21.40;99.90
19058;DHT22;9662;53.612;9.914;2022-07-06T17:47:30;21.30;99.90
19058;DHT22;9662;53.612;9.914;2022-07-06T17:49:57;21.30;99.90
19058;DHT22;9662;53.612;9.914;2022-07-06T17:52:25;21.30;99.90
19058;DHT22;9662;53.612;9.914;2022-07-06T17:54:52;21.20;99.90
19058;DHT22;9662;53.612;9.914;2022-07-06T17:57:18;20.80;99.90
19058;DHT22;9662;53.612;9.914;2022-07-06T17:59:45;20.60;99.90
19058;DHT22;9662;53.612;9.914;2022-07-06T18:02:12;20.30;99.90
19058;DHT22;9662;53.612;9.914;2022-07-06T18:04:39;20.30;99.90
19058;DHT22;9662;53.612;9.914;2022-07-06T18:07:05;20.20;99.90
19058;DHT22;9662;53.612;9.914;2022-07-06T18:09:35;20.40;99.90
19058;DHT22;9662;53.612;9.914;2022-07-06T18:12:02;20.20;99.90
19058;DHT22;9662;53.612;9.914;2022-07-06T18:14:29;20.10;99.90
19058;DHT22;9662;53.612;9.914;2022-07-06T18:16:56;20.20;99.90
19058;DHT22;9662;53.612;9.914;2022-07-06T18:19:23;20.30;99.90
19058;DHT22;9662;53.612;9.914;2022-07-06T18:21:50;20.20;99.90
19058;DHT22;9662;53.612;9.914;2022-07-06T18:24:17;20.40;99.90
19058;DHT22;9662;53.612;9.914;2022-07-06T18:26:45;20.40;99.90
19058;DHT22;9662;53.612;9.914;2022-07-06T18:29:12;20.50;99.90
19058;DHT22;9662;53.612;9.914;2022-07-06T18:31:39;20.30;99.90
19058;DHT22;9662;53.612;9.914;2022-07-06T18:34:07;20.50;99.90
19058;DHT22;9662;53.612;9.914;2022-07-06T18:36:34;20.60;99.90
19058;DHT22;9662;53.612;9.914;2022-07-06T18:39:01;20.30;99.90
19058;DHT22;9662;53.612;9.914;2022-07-06T18:41:28;20.10;99.90
19058;DHT22;9662;53.612;9.914;2022-07-06T18:43:56;20.40;99.90
19058;DHT22;9662;53.612;9.914;2022-07-06T18:46:23;20.60;99.90
19058;DHT22;9662;53.612;9.914;2022-07-06T18:48:50;20.40;99.90
19058;DHT22;9662;53.612;9.914;2022-07-06T18:51:17;20.30;99.90
19058;DHT22;9662;53.612;9.914;2022-07-06T18:53:44;20.30;99.90
19058;DHT22;9662;53.612;9.914;2022-07-06T18:56:11;20.30;99.90
19058;DHT22;9662;53.612;9.914;2022-07-06T18:58:38;20.20;99.90
19058;DHT22;9662;53.612;9.914;2022-07-06T19:01:06;20.10;99.90
19058;DHT22;9662;53.612;9.914;2022-07-06T19:03:32;19.90;99.90
19058;DHT22;9662;53.612;9.914;2022-07-06T19:05:59;20.00;99.90
19058;DHT22;9662;53.612;9.914;2022-07-06T19:08:26;19.90;99.90
19058;DHT22;9662;53.612;9.914;2022-07-06T19:10:53;19.60;99.90
19058;DHT22;9662;53.612;9.914;2022-07-06T19:13:20;19.80;99.90
19058;DHT22;9662;53.612;9.914;2022-07-06T19:15:46;19.60;99.90
19058;DHT22;9662;53.612;9.914;2022-07-06T19:18:14;19.80;99.90
19058;DHT22;9662;53.612;9.914;2022-07-06T19:20:41;19.70;99.90
19058;DHT22;9662;53.612;9.914;2022-07-06T19:23:10;19.50;99.90
19058;DHT22;9662;53.612;9.914;2022-07-06T19:25:38;19.30;99.90
19058;DHT22;9662;53.612;9.914;2022-07-06T19:28:05;19.10;99.90
19058;DHT22;9662;53.612;9.914;2022-07-06T19:30:32;18.80;99.90
19058;DHT22;9662;53.612;9.914;2022-07-06T19:32:59;18.80;99.90
19058;DHT22;9662;53.612;9.914;2022-07-06T19:35:27;18.50;99.90
19058;DHT22;9662;53.612;9.914;2022-07-06T19:37:55;18.60;99.90
19058;DHT22;9662;53.612;9.914;2022-07-06T19:40:22;18.30;99.90
19058;DHT22;9662;53.612;9.914;2022-07-06T19:42:49;18.30;99.90
19058;DHT22;9662;53.612;9.914;2022-07-06T19:45:16;18.00;99.90
19058;DHT22;9662;53.612;9.914;2022-07-06T19:47:42;17.80;99.90
19058;DHT22;9662;53.612;9.914;2022-07-06T19:50:09;17.70;99.90
19058;DHT22;9662;53.612;9.914;2022-07-06T19:52:37;17.60;99.90
19058;DHT22;9662;53.612;9.914;2022-07-06T19:55:05;17.60;99.90
19058;DHT22;9662;53.612;9.914;2022-07-06T19:57:32;17.40;99.90
19058;DHT22;9662;53.612;9.914;2022-07-06T19:59:58;17.80;99.90
19058;DHT22;9662;53.612;9.914;2022-07-06T20:02:25;17.50;99.90
19058;DHT22;9662;53.612;9.914;2022-07-06T20:04:52;17.50;99.90
19058;DHT22;9662;53.612;9.914;2022-07-06T20:07:20;17.50;99.90
19058;DHT22;9662;53.612;9.914;2022-07-06T20:09:48;17.40;99.90
19058;DHT22;9662;53.612;9.914;2022-07-06T20:12:15;17.20;99.90
19058;DHT22;9662;53.612;9.914;2022-07-06T20:14:42;17.20;99.90
19058;DHT22;9662;53.612;9.914;2022-07-06T20:17:09;17.30;99.90
19058;DHT22;9662;53.612;9.914;2022-07-06T20:19:36;17.20;99.90
19058;DHT22;9662;53.612;9.914;2022-07-06T20:22:03;17.30;99.90
19058;DHT22;9662;53.612;9.914;2022-07-06T20:24:32;17.40;99.90
19058;DHT22;9662;53.612;9.914;2022-07-06T20:27:00;17.20;99.90
19058;DHT22;9662;53.612;9.914;2022-07-06T20:29:26;17.30;99.90
19058;DHT22;9662;53.612;9.914;2022-07-06T20:31:53;17.40;99.90
19058;DHT22;9662;53.612;9.914;2022-07-06T20:34:20;17.50;99.90
19058;DHT22;9662;53.612;9.914;2022-07-06T20:36:47;17.50;99.90
19058;DHT22;9662;53.612;9.914;2022-07-06T20:39:14;17.50;99.90
19058;DHT22;9662;53.612;9.914;2022-07-06T20:41:40;17.60;99.90
19058;DHT22;9662;53.612;9.914;2022-07-06T20:44:08;17.50;99.90
19058;DHT22;9662;53.612;9.914;2022-07-06T20:46:35;17.40;99.90
19058;DHT22;9662;53.612;9.914;2022-07-06T20:49:02;17.40;99.90
19058;DHT22;9662;53.612;9.914;2022-07-06T20:51:29;17.30;99.90
19058;DHT22;9662;53.612;9.914;2022-07-06T20:53:56;17.10;99.90
19058;DHT22;9662;53.612;9.914;2022-07-06T20:56:23;17.00;99.90
19058;DHT22;9662;53.612;9.914;2022-07-06T20:58:50;17.10;99.90
19058;DHT22;9662;53.612;9.914;2022-07-06T21:01:18;16.90;99.90
19058;DHT22;9662;53.612;9.914;2022-07-06T21:03:45;17.10;99.90
19058;DHT22;9662;53.612;9.914;2022-07-06T21:06:11;16.80;99.90
19058;DHT22;9662;53.612;9.914;2022-07-06T21:08:39;16.90;99.90
19058;DHT22;9662;53.612;9.914;2022-07-06T21:11:06;16.90;99.90
19058;DHT22;9662;53.612;9.914;2022-07-06T21:13:33;16.90;99.90
19058;DHT22;9662;53.612;9.914;2022-07-06T21:15:59;16.80;99.90
19058;DHT22;9662;53.612;9.914;2022-07-06T21:18:27;16.90;99.90
19058;DHT22;9662;53.612;9.914;2022-07-06T21:20:54;17.10;99.90
19058;DHT22;9662;53.612;9.914;2022-07-06T21:23:21;17.10;99.90
19058;DHT22;9662;53.612;9.914;2022-07-06T21:25:48;17.10;99.90
19058;DHT22;9662;53.612;9.914;2022-07-06T21:28:15;16.90;99.90
19058;DHT22;9662;53.612;9.914;2022-07-06T21:30:42;16.90;99.90
19058;DHT22;9662;53.612;9.914;2022-07-06T21:33:09;16.90;99.90
19058;DHT22;9662;53.612;9.914;2022-07-06T21:35:37;17.10;99.90
19058;DHT22;9662;53.612;9.914;2022-07-06T21:38:04;17.00;99.90
19058;DHT22;9662;53.612;9.914;2022-07-06T21:40:30;16.90;99.90
19058;DHT22;9662;53.612;9.914;2022-07-06T21:42:57;16.90;99.90
19058;DHT22;9662;53.612;9.914;2022-07-06T21:45:24;16.90;99.90
19058;DHT22;9662;53.612;9.914;2022-07-06T21:47:51;16.60;99.90
19058;DHT22;9662;53.612;9.914;2022-07-06T21:50:17;16.70;99.90
19058;DHT22;9662;53.612;9.914;2022-07-06T21:52:45;16.80;99.90
19058;DHT22;9662;53.612;9.914;2022-07-06T21:55:12;16.70;99.90
19058;DHT22;9662;53.612;9.914;2022-07-06T21:57:39;16.60;99.90
19058;DHT22;9662;53.612;9.914;2022-07-06T22:00:07;16.70;99.90
19058;DHT22;9662;53.612;9.914;2022-07-06T22:02:34;16.60;99.90
19058;DHT22;9662;53.612;9.914;2022-07-06T22:05:01;16.60;99.90
19058;DHT22;9662;53.612;9.914;2022-07-06T22:07:27;16.60;99.90
19058;DHT22;9662;53.612;9.914;2022-07-06T22:09:55;16.70;99.90
19058;DHT22;9662;53.612;9.914;2022-07-06T22:12:22;16.60;99.90
19058;DHT22;9662;53.612;9.914;2022-07-06T22:14:49;16.50;99.90
19058;DHT22;9662;53.612;9.914;2022-07-06T22:17:16;16.60;99.90
19058;DHT22;9662;53.612;9.914;2022-07-06T22:19:43;16.40;99.90
19058;DHT22;9662;53.612;9.914;2022-07-06T22:22:10;16.50;99.90
19058;DHT22;9662;53.612;9.914;2022-07-06T22:24:37;16.40;99.90
19058;DHT22;9662;53.612;9.914;2022-07-06T22:27:06;16.70;99.90
19058;DHT22;9662;53.612;9.914;2022-07-06T22:29:33;16.50;99.90
19058;DHT22;9662;53.612;9.914;2022-07-06T22:31:59;16.40;99.90
19058;DHT22;9662;53.612;9.914;2022-07-06T22:34:26;16.50;99.90
19058;DHT22;9662;53.612;9.914;2022-07-06T22:36:53;16.80;99.90
19058;DHT22;9662;53.612;9.914;2022-07-06T22:39:20;16.50;99.90
19058;DHT22;9662;53.612;9.914;2022-07-06T22:41:46;16.30;99.90
19058;DHT22;9662;53.612;9.914;2022-07-06T22:44:14;16.30;99.90
19058;DHT22;9662;53.612;9.914;2022-07-06T22:46:41;16.30;99.90
19058;DHT22;9662;53.612;9.914;2022-07-06T22:49:08;16.30;99.90
19058;DHT22;9662;53.612;9.914;2022-07-06T22:51:35;16.20;99.90
19058;DHT22;9662;53.612;9.914;2022-07-06T22:54:02;16.30;99.90
19058;DHT22;9662;53.612;9.914;2022-07-06T22:56:29;16.10;99.90
19058;DHT22;9662;53.612;9.914;2022-07-06T22:58:56;16.20;99.90
19058;DHT22;9662;53.612;9.914;2022-07-06T23:01:24;16.10;99.90
19058;DHT22;9662;53.612;9.914;2022-07-06T23:03:51;16.30;99.90
19058;DHT22;9662;53.612;9.914;2022-07-06T23:06:18;16.30;99.90
19058;DHT22;9662;53.612;9.914;2022-07-06T23:08:45;16.20;99.90
19058;DHT22;9662;53.612;9.914;2022-07-06T23:11:12;16.10;99.90
19058;DHT22;9662;53.612;9.914;2022-07-06T23:13:39;16.10;99.90
19058;DHT22;9662;53.612;9.914;2022-07-06T23:16:06;16.10;99.90
19058;DHT22;9662;53.612;9.914;2022-07-06T23:18:34;15.90;99.90
19058;DHT22;9662;53.612;9.914;2022-07-06T23:21:01;16.10;99.90
19058;DHT22;9662;53.612;9.914;2022-07-06T23:23:27;16.20;99.90
19058;DHT22;9662;53.612;9.914;2022-07-06T23:25:54;16.10;99.90
19058;DHT22;9662;53.612;9.914;2022-07-06T23:28:21;16.30;99.90
19058;DHT22;9662;53.612;9.914;2022-07-06T23:30:48;16.30;99.90
19058;DHT22;9662;53.612;9.914;2022-07-06T23:33:14;16.30;99.90
19058;DHT22;9662;53.612;9.914;2022-07-06T23:35:43;16.10;99.90
19058;DHT22;9662;53.612;9.914;2022-07-06T23:38:10;16.20;99.90
19058;DHT22;9662;53.612;9.914;2022-07-06T23:40:36;16.20;99.90
19058;DHT22;9662;53.612;9.914;2022-07-06T23:43:03;16.40;99.90
19058;DHT22;9662;53.612;9.914;2022-07-06T23:45:30;16.40;99.90
19058;DHT22;9662;53.612;9.914;2022-07-06T23:47:57;16.40;99.90
19058;DHT22;9662;53.612;9.914;2022-07-06T23:50:23;16.40;99.90
19058;DHT22;9662;53.612;9.914;2022-07-06T23:52:51;16.10;99.90
19058;DHT22;9662;53.612;9.914;2022-07-06T23:55:18;16.30;99.90
19058;DHT22;9662;53.612;9.914;2022-07-06T23:57:45;16.20;99.90
